sensor_id;sensor_type;location;lat;lon;timestamp;P1;durP1;ratioP1;P2;durP2;ratioP2
8654;SDS011;13500;52.514;13.462;2024-02-14T00:00:30;9.27;;;7.20;;
8654;SDS011;13500;52.514;13.462;2024-02-14T00:02:57;9.07;;;6.77;;
8654;SDS011;13500;52.514;13.462;2024-02-14T00:05:27;8.13;;;6.93;;
8654;SDS011;13500;52.514;13.462;2024-02-14T00:07:55;10.67;;;7.03;;
8654;SDS011;13500;52.514;13.462;2024-02-14T00:10:23;12.60;;;8.20;;
8654;SDS011;13500;52.514;13.462;2024-02-14T00:12:51;14.03;;;9.33;;
8654;SDS011;13500;52.514;13.462;2024-02-14T00:15:19;11.10;;;9.03;;
8654;SDS011;13500;52.514;13.462;2024-02-14T00:17:47;11.57;;;8.67;;
8654;SDS011;13500;52.514;13.462;2024-02-14T00:20:16;12.03;;;7.93;;
8654;SDS011;13500;52.514;13.462;2024-02-14T00:22:52;10.17;;;7.67;;
8654;SDS011;13500;52.514;13.462;2024-02-14T00:25:20;15.00;;;7.40;;
8654;SDS011;13500;52.514;13.462;2024-02-14T00:27:48;9.87;;;7.03;;
8654;SDS011;13500;52.514;13.462;2024-02-14T00:30:17;13.13;;;7.80;;
8654;SDS011;13500;52.514;13.462;2024-02-14T00:33:06;10.80;;;7.57;;
8654;SDS011;13500;52.514;13.462;2024-02-14T00:35:35;11.03;;;7.90;;
8654;SDS011;13500;52.514;13.462;2024-02-14T00:38:04;11.27;;;7.37;;
8654;SDS011;13500;52.514;13.462;2024-02-14T00:40:33;12.17;;;8.60;;
8654;SDS011;13500;52.514;13.462;2024-02-14T00:43:01;12.80;;;7.10;;
8654;SDS011;13500;52.514;13.462;2024-02-14T00:45:28;10.20;;;7.50;;
8654;SDS011;13500;52.514;13.462;2024-02-14T00:47:56;8.40;;;7.37;;
8654;SDS011;13500;52.514;13.462;2024-02-14T00:50:25;13.33;;;7.67;;
8654;SDS011;13500;52.514;13.462;2024-02-14T00:52:53;10.20;;;7.47;;
8654;SDS011;13500;52.514;13.462;2024-02-14T00:55:21;10.70;;;7.73;;
8654;SDS011;13500;52.514;13.462;2024-02-14T00:57:49;10.77;;;7.27;;
8654;SDS011;13500;52.514;13.462;2024-02-14T01:00:17;9.10;;;7.83;;
8654;SDS011;13500;52.514;13.462;2024-02-14T01:02:46;9.83;;;7.37;;
8654;SDS011;13500;52.514;13.462;2024-02-14T01:05:14;11.27;;;7.63;;
8654;SDS011;13500;52.514;13.462;2024-02-14T01:07:42;10.73;;;8.00;;
8654;SDS011;13500;52.514;13.462;2024-02-14T01:10:12;11.97;;;8.20;;
8654;SDS011;13500;52.514;13.462;2024-02-14T01:12:42;10.40;;;7.50;;
8654;SDS011;13500;52.514;13.462;2024-02-14T01:15:10;10.87;;;7.03;;
8654;SDS011;13500;52.514;13.462;2024-02-14T01:17:38;13.07;;;7.73;;
8654;SDS011;13500;52.514;13.462;2024-02-14T01:20:07;10.23;;;6.60;;
8654;SDS011;13500;52.514;13.462;2024-02-14T01:22:36;10.67;;;6.47;;
8654;SDS011;13500;52.514;13.462;2024-02-14T01:25:13;10.17;;;6.43;;
8654;SDS011;13500;52.514;13.462;2024-02-14T01:27:42;9.03;;;6.70;;
8654;SDS011;13500;52.514;13.462;2024-02-14T01:30:11;7.83;;;6.80;;
8654;SDS011;13500;52.514;13.462;2024-02-14T01:32:39;8.10;;;6.60;;
8654;SDS011;13500;52.514;13.462;2024-02-14T01:35:07;8.33;;;6.60;;
8654;SDS011;13500;52.514;13.462;2024-02-14T01:37:36;8.87;;;6.90;;
8654;SDS011;13500;52.514;13.462;2024-02-14T01:40:04;10.40;;;6.60;;
8654;SDS011;13500;52.514;13.462;2024-02-14T01:42:48;8.40;;;6.07;;
8654;SDS011;13500;52.514;13.462;2024-02-14T01:45:18;12.60;;;6.87;;
8654;SDS011;13500;52.514;13.462;2024-02-14T01:47:57;8.10;;;6.43;;
8654;SDS011;13500;52.514;13.462;2024-02-14T01:50:26;10.17;;;7.03;;
8654;SDS011;13500;52.514;13.462;2024-02-14T01:52:57;10.03;;;7.13;;
8654;SDS011;13500;52.514;13.462;2024-02-14T01:55:27;10.27;;;7.30;;
8654;SDS011;13500;52.514;13.462;2024-02-14T01:57:56;9.53;;;6.87;;
8654;SDS011;13500;52.514;13.462;2024-02-14T02:00:25;9.47;;;7.00;;
8654;SDS011;13500;52.514;13.462;2024-02-14T02:02:54;8.60;;;6.53;;
8654;SDS011;13500;52.514;13.462;2024-02-14T02:05:24;11.73;;;6.40;;
8654;SDS011;13500;52.514;13.462;2024-02-14T02:07:52;8.50;;;6.70;;
8654;SDS011;13500;52.514;13.462;2024-02-14T02:10:21;9.10;;;6.80;;
8654;SDS011;13500;52.514;13.462;2024-02-14T02:13:13;9.10;;;6.73;;
8654;SDS011;13500;52.514;13.462;2024-02-14T02:16:03;9.00;;;6.27;;
8654;SDS011;13500;52.514;13.462;2024-02-14T02:18:51;10.07;;;7.17;;
8654;SDS011;13500;52.514;13.462;2024-02-14T02:21:41;9.20;;;7.07;;
8654;SDS011;13500;52.514;13.462;2024-02-14T02:24:11;9.87;;;7.10;;
8654;SDS011;13500;52.514;13.462;2024-02-14T02:26:40;9.17;;;6.53;;
8654;SDS011;13500;52.514;13.462;2024-02-14T02:29:28;8.90;;;6.13;;
8654;SDS011;13500;52.514;13.462;2024-02-14T02:31:56;8.23;;;6.40;;
8654;SDS011;13500;52.514;13.462;2024-02-14T02:34:24;7.53;;;6.20;;
8654;SDS011;13500;52.514;13.462;2024-02-14T02:36:52;9.80;;;6.23;;
8654;SDS011;13500;52.514;13.462;2024-02-14T02:39:40;8.40;;;6.33;;
8654;SDS011;13500;52.514;13.462;2024-02-14T02:42:28;8.40;;;6.17;;
8654;SDS011;13500;52.514;13.462;2024-02-14T02:45:16;8.97;;;5.77;;
8654;SDS011;13500;52.514;13.462;2024-02-14T02:48:05;7.23;;;5.70;;
8654;SDS011;13500;52.514;13.462;2024-02-14T02:50:54;7.00;;;5.60;;
8654;SDS011;13500;52.514;13.462;2024-02-14T02:53:40;8.13;;;5.20;;
8654;SDS011;13500;52.514;13.462;2024-02-14T02:56:29;7.00;;;5.87;;
8654;SDS011;13500;52.514;13.462;2024-02-14T02:59:00;8.40;;;6.17;;
8654;SDS011;13500;52.514;13.462;2024-02-14T03:01:34;6.70;;;5.57;;
8654;SDS011;13500;52.514;13.462;2024-02-14T03:04:23;8.07;;;6.17;;
8654;SDS011;13500;52.514;13.462;2024-02-14T03:07:31;7.50;;;5.50;;
8654;SDS011;13500;52.514;13.462;2024-02-14T03:10:19;8.37;;;5.70;;
8654;SDS011;13500;52.514;13.462;2024-02-14T03:13:09;9.17;;;5.50;;
8654;SDS011;13500;52.514;13.462;2024-02-14T03:15:58;10.27;;;6.20;;
8654;SDS011;13500;52.514;13.462;2024-02-14T03:18:26;7.60;;;5.73;;
8654;SDS011;13500;52.514;13.462;2024-02-14T03:20:54;8.50;;;5.63;;
8654;SDS011;13500;52.514;13.462;2024-02-14T03:23:22;9.77;;;5.67;;
8654;SDS011;13500;52.514;13.462;2024-02-14T03:25:50;8.13;;;5.73;;
8654;SDS011;13500;52.514;13.462;2024-02-14T03:28:20;9.23;;;6.10;;
8654;SDS011;13500;52.514;13.462;2024-02-14T03:30:48;8.17;;;5.90;;
8654;SDS011;13500;52.514;13.462;2024-02-14T03:33:16;9.00;;;6.00;;
8654;SDS011;13500;52.514;13.462;2024-02-14T03:35:44;6.17;;;5.53;;
8654;SDS011;13500;52.514;13.462;2024-02-14T03:38:13;8.70;;;6.10;;
8654;SDS011;13500;52.514;13.462;2024-02-14T03:40:41;6.83;;;5.70;;
8654;SDS011;13500;52.514;13.462;2024-02-14T03:43:12;8.27;;;6.20;;
8654;SDS011;13500;52.514;13.462;2024-02-14T03:45:42;7.37;;;5.83;;
8654;SDS011;13500;52.514;13.462;2024-02-14T03:48:10;7.87;;;5.70;;
8654;SDS011;13500;52.514;13.462;2024-02-14T03:50:39;8.63;;;6.60;;
8654;SDS011;13500;52.514;13.462;2024-02-14T03:53:07;8.27;;;6.30;;
8654;SDS011;13500;52.514;13.462;2024-02-14T03:55:37;8.50;;;6.70;;
8654;SDS011;13500;52.514;13.462;2024-02-14T03:58:05;8.77;;;6.40;;
8654;SDS011;13500;52.514;13.462;2024-02-14T04:00:35;7.67;;;6.67;;
8654;SDS011;13500;52.514;13.462;2024-02-14T04:03:04;10.57;;;6.60;;
8654;SDS011;13500;52.514;13.462;2024-02-14T04:05:33;8.77;;;6.53;;
8654;SDS011;13500;52.514;13.462;2024-02-14T04:08:03;8.53;;;6.53;;
8654;SDS011;13500;52.514;13.462;2024-02-14T04:10:31;8.57;;;7.10;;
8654;SDS011;13500;52.514;13.462;2024-02-14T04:12:59;9.53;;;6.73;;
8654;SDS011;13500;52.514;13.462;2024-02-14T04:15:27;8.07;;;7.27;;
8654;SDS011;13500;52.514;13.462;2024-02-14T04:18:05;10.27;;;7.40;;
8654;SDS011;13500;52.514;13.462;2024-02-14T04:20:34;7.90;;;6.53;;
8654;SDS011;13500;52.514;13.462;2024-02-14T04:23:02;10.40;;;6.63;;
8654;SDS011;13500;52.514;13.462;2024-02-14T04:25:33;9.03;;;6.77;;
8654;SDS011;13500;52.514;13.462;2024-02-14T04:28:02;13.70;;;6.73;;
8654;SDS011;13500;52.514;13.462;2024-02-14T04:30:30;10.17;;;7.20;;
8654;SDS011;13500;52.514;13.462;2024-02-14T04:33:02;9.90;;;6.53;;
8654;SDS011;13500;52.514;13.462;2024-02-14T04:35:32;11.57;;;7.50;;
8654;SDS011;13500;52.514;13.462;2024-02-14T04:38:00;9.90;;;6.77;;
8654;SDS011;13500;52.514;13.462;2024-02-14T04:40:29;9.43;;;7.00;;
8654;SDS011;13500;52.514;13.462;2024-02-14T04:42:57;9.60;;;7.07;;
8654;SDS011;13500;52.514;13.462;2024-02-14T04:45:25;8.17;;;7.37;;
8654;SDS011;13500;52.514;13.462;2024-02-14T04:48:00;12.07;;;7.10;;
8654;SDS011;13500;52.514;13.462;2024-02-14T04:50:28;9.57;;;7.17;;
8654;SDS011;13500;52.514;13.462;2024-02-14T04:52:58;8.97;;;6.80;;
8654;SDS011;13500;52.514;13.462;2024-02-14T04:55:26;7.70;;;6.77;;
8654;SDS011;13500;52.514;13.462;2024-02-14T04:57:55;8.57;;;7.17;;
8654;SDS011;13500;52.514;13.462;2024-02-14T05:00:23;9.57;;;7.33;;
8654;SDS011;13500;52.514;13.462;2024-02-14T05:02:51;11.30;;;6.93;;
8654;SDS011;13500;52.514;13.462;2024-02-14T05:05:20;10.47;;;7.60;;
8654;SDS011;13500;52.514;13.462;2024-02-14T05:07:53;9.77;;;7.40;;
8654;SDS011;13500;52.514;13.462;2024-02-14T05:10:22;9.83;;;7.60;;
8654;SDS011;13500;52.514;13.462;2024-02-14T05:12:50;12.13;;;6.93;;
8654;SDS011;13500;52.514;13.462;2024-02-14T05:15:18;10.00;;;7.70;;
8654;SDS011;13500;52.514;13.462;2024-02-14T05:17:46;10.20;;;7.40;;
8654;SDS011;13500;52.514;13.462;2024-02-14T05:20:16;9.63;;;7.47;;
8654;SDS011;13500;52.514;13.462;2024-02-14T05:22:44;11.33;;;7.50;;
8654;SDS011;13500;52.514;13.462;2024-02-14T05:25:12;9.57;;;7.10;;
8654;SDS011;13500;52.514;13.462;2024-02-14T05:27:53;11.83;;;7.60;;
8654;SDS011;13500;52.514;13.462;2024-02-14T05:30:21;9.70;;;7.37;;
8654;SDS011;13500;52.514;13.462;2024-02-14T05:33:01;8.83;;;5.73;;
8654;SDS011;13500;52.514;13.462;2024-02-14T05:35:29;11.60;;;7.23;;
8654;SDS011;13500;52.514;13.462;2024-02-14T05:37:57;10.57;;;8.10;;
8654;SDS011;13500;52.514;13.462;2024-02-14T05:40:25;9.83;;;7.77;;
8654;SDS011;13500;52.514;13.462;2024-02-14T05:42:54;13.40;;;9.57;;
8654;SDS011;13500;52.514;13.462;2024-02-14T05:45:23;11.53;;;8.13;;
8654;SDS011;13500;52.514;13.462;2024-02-14T05:47:50;13.63;;;7.87;;
8654;SDS011;13500;52.514;13.462;2024-02-14T05:50:19;12.13;;;8.23;;
8654;SDS011;13500;52.514;13.462;2024-02-14T05:52:47;11.17;;;8.13;;
8654;SDS011;13500;52.514;13.462;2024-02-14T05:55:15;12.07;;;7.03;;
8654;SDS011;13500;52.514;13.462;2024-02-14T05:57:49;12.47;;;7.60;;
8654;SDS011;13500;52.514;13.462;2024-02-14T06:00:20;10.77;;;7.43;;
8654;SDS011;13500;52.514;13.462;2024-02-14T06:02:54;8.83;;;6.43;;
8654;SDS011;13500;52.514;13.462;2024-02-14T06:05:22;7.90;;;6.60;;
8654;SDS011;13500;52.514;13.462;2024-02-14T06:07:50;7.77;;;6.30;;
8654;SDS011;13500;52.514;13.462;2024-02-14T06:10:18;11.07;;;6.73;;
8654;SDS011;13500;52.514;13.462;2024-02-14T06:12:46;13.27;;;6.60;;
8654;SDS011;13500;52.514;13.462;2024-02-14T06:15:14;10.67;;;6.80;;
8654;SDS011;13500;52.514;13.462;2024-02-14T06:17:44;9.60;;;6.73;;
8654;SDS011;13500;52.514;13.462;2024-02-14T06:20:12;9.13;;;6.90;;
8654;SDS011;13500;52.514;13.462;2024-02-14T06:22:41;9.17;;;6.70;;
8654;SDS011;13500;52.514;13.462;2024-02-14T06:25:22;9.83;;;6.03;;
8654;SDS011;13500;52.514;13.462;2024-02-14T06:27:58;8.97;;;6.13;;
8654;SDS011;13500;52.514;13.462;2024-02-14T06:30:26;11.60;;;6.63;;
8654;SDS011;13500;52.514;13.462;2024-02-14T06:33:00;10.23;;;7.03;;
8654;SDS011;13500;52.514;13.462;2024-02-14T06:35:29;10.13;;;6.90;;
8654;SDS011;13500;52.514;13.462;2024-02-14T06:37:58;13.93;;;7.10;;
8654;SDS011;13500;52.514;13.462;2024-02-14T06:40:31;9.17;;;6.17;;
8654;SDS011;13500;52.514;13.462;2024-02-14T06:42:59;11.17;;;6.97;;
8654;SDS011;13500;52.514;13.462;2024-02-14T06:45:28;10.57;;;6.23;;
8654;SDS011;13500;52.514;13.462;2024-02-14T06:48:07;14.20;;;6.30;;
8654;SDS011;13500;52.514;13.462;2024-02-14T06:50:36;10.83;;;6.00;;
8654;SDS011;13500;52.514;13.462;2024-02-14T06:53:04;10.13;;;6.37;;
8654;SDS011;13500;52.514;13.462;2024-02-14T06:55:32;12.37;;;6.50;;
8654;SDS011;13500;52.514;13.462;2024-02-14T06:58:01;11.17;;;6.37;;
8654;SDS011;13500;52.514;13.462;2024-02-14T07:00:31;13.40;;;6.60;;
8654;SDS011;13500;52.514;13.462;2024-02-14T07:02:59;11.13;;;6.63;;
8654;SDS011;13500;52.514;13.462;2024-02-14T07:05:29;11.13;;;6.80;;
8654;SDS011;13500;52.514;13.462;2024-02-14T07:07:57;10.53;;;6.87;;
8654;SDS011;13500;52.514;13.462;2024-02-14T07:10:25;13.17;;;6.43;;
8654;SDS011;13500;52.514;13.462;2024-02-14T07:12:53;9.63;;;5.80;;
8654;SDS011;13500;52.514;13.462;2024-02-14T07:15:21;13.47;;;6.33;;
8654;SDS011;13500;52.514;13.462;2024-02-14T07:17:52;13.40;;;6.50;;
8654;SDS011;13500;52.514;13.462;2024-02-14T07:20:20;11.17;;;6.70;;
8654;SDS011;13500;52.514;13.462;2024-02-14T07:22:49;10.47;;;6.20;;
8654;SDS011;13500;52.514;13.462;2024-02-14T07:25:19;11.30;;;6.37;;
8654;SDS011;13500;52.514;13.462;2024-02-14T07:27:48;10.33;;;6.73;;
8654;SDS011;13500;52.514;13.462;2024-02-14T07:30:16;10.83;;;6.10;;
8654;SDS011;13500;52.514;13.462;2024-02-14T07:32:44;12.37;;;6.13;;
8654;SDS011;13500;52.514;13.462;2024-02-14T07:35:13;11.23;;;5.87;;
8654;SDS011;13500;52.514;13.462;2024-02-14T07:37:41;12.53;;;6.50;;
8654;SDS011;13500;52.514;13.462;2024-02-14T07:40:11;9.67;;;6.00;;
8654;SDS011;13500;52.514;13.462;2024-02-14T07:42:58;8.03;;;5.50;;
8654;SDS011;13500;52.514;13.462;2024-02-14T07:45:26;9.60;;;5.73;;
8654;SDS011;13500;52.514;13.462;2024-02-14T07:47:54;6.70;;;5.17;;
8654;SDS011;13500;52.514;13.462;2024-02-14T07:50:22;10.70;;;7.77;;
8654;SDS011;13500;52.514;13.462;2024-02-14T07:52:50;9.97;;;5.30;;
8654;SDS011;13500;52.514;13.462;2024-02-14T07:55:20;11.23;;;5.40;;
8654;SDS011;13500;52.514;13.462;2024-02-14T07:57:48;9.80;;;5.90;;
8654;SDS011;13500;52.514;13.462;2024-02-14T08:00:16;8.50;;;5.73;;
8654;SDS011;13500;52.514;13.462;2024-02-14T08:02:49;9.43;;;6.03;;
8654;SDS011;13500;52.514;13.462;2024-02-14T08:05:17;14.83;;;5.77;;
8654;SDS011;13500;52.514;13.462;2024-02-14T08:07:45;10.33;;;5.90;;
8654;SDS011;13500;52.514;13.462;2024-02-14T08:10:14;9.70;;;5.57;;
8654;SDS011;13500;52.514;13.462;2024-02-14T08:12:44;10.63;;;6.10;;
8654;SDS011;13500;52.514;13.462;2024-02-14T08:15:13;9.73;;;6.27;;
8654;SDS011;13500;52.514;13.462;2024-02-14T08:17:41;7.10;;;5.50;;
8654;SDS011;13500;52.514;13.462;2024-02-14T08:20:12;9.70;;;6.60;;
8654;SDS011;13500;52.514;13.462;2024-02-14T08:22:50;12.03;;;7.50;;
8654;SDS011;13500;52.514;13.462;2024-02-14T08:25:18;9.37;;;6.20;;
8654;SDS011;13500;52.514;13.462;2024-02-14T08:27:48;7.13;;;5.40;;
8654;SDS011;13500;52.514;13.462;2024-02-14T08:30:16;10.80;;;6.70;;
8654;SDS011;13500;52.514;13.462;2024-02-14T08:32:46;7.83;;;6.00;;
8654;SDS011;13500;52.514;13.462;2024-02-14T08:35:14;13.03;;;8.10;;
8654;SDS011;13500;52.514;13.462;2024-02-14T08:37:42;12.83;;;7.33;;
8654;SDS011;13500;52.514;13.462;2024-02-14T08:40:10;13.13;;;9.07;;
8654;SDS011;13500;52.514;13.462;2024-02-14T08:42:39;10.10;;;7.60;;
8654;SDS011;13500;52.514;13.462;2024-02-14T08:45:09;10.67;;;7.17;;
8654;SDS011;13500;52.514;13.462;2024-02-14T08:47:37;7.33;;;5.77;;
8654;SDS011;13500;52.514;13.462;2024-02-14T08:50:06;6.80;;;5.13;;
8654;SDS011;13500;52.514;13.462;2024-02-14T08:52:35;7.67;;;5.23;;
8654;SDS011;13500;52.514;13.462;2024-02-14T08:55:04;7.37;;;5.17;;
8654;SDS011;13500;52.514;13.462;2024-02-14T08:57:37;8.40;;;4.73;;
8654;SDS011;13500;52.514;13.462;2024-02-14T09:00:06;6.37;;;4.83;;
8654;SDS011;13500;52.514;13.462;2024-02-14T09:02:37;7.10;;;4.87;;
8654;SDS011;13500;52.514;13.462;2024-02-14T09:05:06;6.30;;;4.87;;
8654;SDS011;13500;52.514;13.462;2024-02-14T09:07:36;7.73;;;4.63;;
8654;SDS011;13500;52.514;13.462;2024-02-14T09:10:04;8.33;;;4.83;;
8654;SDS011;13500;52.514;13.462;2024-02-14T09:12:33;5.20;;;4.37;;
8654;SDS011;13500;52.514;13.462;2024-02-14T09:15:01;7.03;;;4.70;;
8654;SDS011;13500;52.514;13.462;2024-02-14T09:17:31;6.53;;;4.13;;
8654;SDS011;13500;52.514;13.462;2024-02-14T09:20:01;6.60;;;5.10;;
8654;SDS011;13500;52.514;13.462;2024-02-14T09:22:29;7.60;;;4.70;;
8654;SDS011;13500;52.514;13.462;2024-02-14T09:24:57;7.30;;;4.33;;
8654;SDS011;13500;52.514;13.462;2024-02-14T09:27:26;6.43;;;4.33;;
8654;SDS011;13500;52.514;13.462;2024-02-14T09:29:54;6.63;;;4.20;;
8654;SDS011;13500;52.514;13.462;2024-02-14T09:32:22;5.57;;;3.90;;
8654;SDS011;13500;52.514;13.462;2024-02-14T09:34:50;13.27;;;4.10;;
8654;SDS011;13500;52.514;13.462;2024-02-14T09:37:19;9.60;;;4.50;;
8654;SDS011;13500;52.514;13.462;2024-02-14T09:39:49;5.80;;;3.87;;
8654;SDS011;13500;52.514;13.462;2024-02-14T09:42:19;8.43;;;4.23;;
8654;SDS011;13500;52.514;13.462;2024-02-14T09:44:51;5.93;;;3.97;;
8654;SDS011;13500;52.514;13.462;2024-02-14T09:47:20;7.53;;;4.10;;
8654;SDS011;13500;52.514;13.462;2024-02-14T09:49:48;9.33;;;4.60;;
8654;SDS011;13500;52.514;13.462;2024-02-14T09:52:19;5.37;;;3.80;;
8654;SDS011;13500;52.514;13.462;2024-02-14T09:54:48;6.43;;;3.70;;
8654;SDS011;13500;52.514;13.462;2024-02-14T09:57:17;7.57;;;4.60;;
8654;SDS011;13500;52.514;13.462;2024-02-14T09:59:45;4.80;;;3.43;;
8654;SDS011;13500;52.514;13.462;2024-02-14T10:02:14;5.10;;;3.60;;
8654;SDS011;13500;52.514;13.462;2024-02-14T10:04:44;5.43;;;3.20;;
8654;SDS011;13500;52.514;13.462;2024-02-14T10:07:12;8.50;;;4.00;;
8654;SDS011;13500;52.514;13.462;2024-02-14T10:09:41;7.63;;;4.50;;
8654;SDS011;13500;52.514;13.462;2024-02-14T10:12:10;7.60;;;4.07;;
8654;SDS011;13500;52.514;13.462;2024-02-14T10:14:38;6.70;;;4.00;;
8654;SDS011;13500;52.514;13.462;2024-02-14T10:17:07;6.97;;;3.70;;
8654;SDS011;13500;52.514;13.462;2024-02-14T10:19:36;6.37;;;4.10;;
8654;SDS011;13500;52.514;13.462;2024-02-14T10:22:04;8.97;;;4.30;;
8654;SDS011;13500;52.514;13.462;2024-02-14T10:24:34;10.60;;;4.60;;
8654;SDS011;13500;52.514;13.462;2024-02-14T10:27:05;8.03;;;4.33;;
8654;SDS011;13500;52.514;13.462;2024-02-14T10:29:35;6.83;;;4.30;;
8654;SDS011;13500;52.514;13.462;2024-02-14T10:32:03;6.40;;;4.63;;
8654;SDS011;13500;52.514;13.462;2024-02-14T10:34:31;9.57;;;5.43;;
8654;SDS011;13500;52.514;13.462;2024-02-14T10:37:01;8.07;;;5.03;;
8654;SDS011;13500;52.514;13.462;2024-02-14T10:39:29;8.73;;;5.00;;
8654;SDS011;13500;52.514;13.462;2024-02-14T10:41:57;8.40;;;5.27;;
8654;SDS011;13500;52.514;13.462;2024-02-14T10:44:27;9.43;;;5.17;;
8654;SDS011;13500;52.514;13.462;2024-02-14T10:46:57;8.30;;;5.50;;
8654;SDS011;13500;52.514;13.462;2024-02-14T10:49:29;8.83;;;5.07;;
8654;SDS011;13500;52.514;13.462;2024-02-14T10:51:58;9.30;;;5.40;;
8654;SDS011;13500;52.514;13.462;2024-02-14T10:54:29;6.17;;;4.60;;
8654;SDS011;13500;52.514;13.462;2024-02-14T10:56:58;6.57;;;5.17;;
8654;SDS011;13500;52.514;13.462;2024-02-14T10:59:27;8.57;;;5.27;;
8654;SDS011;13500;52.514;13.462;2024-02-14T11:01:56;8.03;;;5.50;;
8654;SDS011;13500;52.514;13.462;2024-02-14T11:04:25;8.77;;;6.20;;
8654;SDS011;13500;52.514;13.462;2024-02-14T11:06:53;5.77;;;5.17;;
8654;SDS011;13500;52.514;13.462;2024-02-14T11:09:21;7.60;;;5.00;;
8654;SDS011;13500;52.514;13.462;2024-02-14T11:11:58;10.90;;;6.17;;
8654;SDS011;13500;52.514;13.462;2024-02-14T11:14:31;12.87;;;5.13;;
8654;SDS011;13500;52.514;13.462;2024-02-14T11:16:59;9.20;;;5.20;;
8654;SDS011;13500;52.514;13.462;2024-02-14T11:19:30;7.70;;;5.10;;
8654;SDS011;13500;52.514;13.462;2024-02-14T11:22:09;8.93;;;4.90;;
8654;SDS011;13500;52.514;13.462;2024-02-14T11:24:38;8.50;;;5.13;;
8654;SDS011;13500;52.514;13.462;2024-02-14T11:27:09;8.20;;;4.60;;
8654;SDS011;13500;52.514;13.462;2024-02-14T11:29:59;6.53;;;5.17;;
8654;SDS011;13500;52.514;13.462;2024-02-14T11:32:27;7.17;;;5.70;;
8654;SDS011;13500;52.514;13.462;2024-02-14T11:34:56;35.07;;;28.40;;
8654;SDS011;13500;52.514;13.462;2024-02-14T11:37:28;18.80;;;16.23;;
8654;SDS011;13500;52.514;13.462;2024-02-14T11:39:56;9.97;;;5.63;;
8654;SDS011;13500;52.514;13.462;2024-02-14T11:42:24;15.10;;;8.53;;
8654;SDS011;13500;52.514;13.462;2024-02-14T11:44:54;23.17;;;16.90;;
8654;SDS011;13500;52.514;13.462;2024-02-14T11:47:24;16.33;;;12.37;;
8654;SDS011;13500;52.514;13.462;2024-02-14T11:49:52;33.23;;;14.47;;
8654;SDS011;13500;52.514;13.462;2024-02-14T11:52:20;26.17;;;11.50;;
8654;SDS011;13500;52.514;13.462;2024-02-14T11:54:48;18.83;;;9.37;;
8654;SDS011;13500;52.514;13.462;2024-02-14T11:57:17;23.50;;;10.87;;
8654;SDS011;13500;52.514;13.462;2024-02-14T11:59:48;48.07;;;19.10;;
8654;SDS011;13500;52.514;13.462;2024-02-14T12:02:19;44.10;;;16.03;;
8654;SDS011;13500;52.514;13.462;2024-02-14T12:04:49;19.43;;;10.37;;
8654;SDS011;13500;52.514;13.462;2024-02-14T12:07:20;15.00;;;7.87;;
8654;SDS011;13500;52.514;13.462;2024-02-14T12:09:49;18.20;;;9.93;;
8654;SDS011;13500;52.514;13.462;2024-02-14T12:12:17;39.13;;;16.03;;
8654;SDS011;13500;52.514;13.462;2024-02-14T12:14:46;67.93;;;24.90;;
8654;SDS011;13500;52.514;13.462;2024-02-14T12:17:16;16.40;;;8.90;;
8654;SDS011;13500;52.514;13.462;2024-02-14T12:19:45;11.77;;;7.53;;
8654;SDS011;13500;52.514;13.462;2024-02-14T12:22:16;33.57;;;14.00;;
8654;SDS011;13500;52.514;13.462;2024-02-14T12:24:46;88.93;;;31.00;;
8654;SDS011;13500;52.514;13.462;2024-02-14T12:27:16;57.63;;;20.33;;
8654;SDS011;13500;52.514;13.462;2024-02-14T12:29:45;57.53;;;22.57;;
8654;SDS011;13500;52.514;13.462;2024-02-14T12:32:15;15.43;;;7.27;;
8654;SDS011;13500;52.514;13.462;2024-02-14T12:34:44;31.23;;;13.37;;
8654;SDS011;13500;52.514;13.462;2024-02-14T12:37:12;18.17;;;7.77;;
8654;SDS011;13500;52.514;13.462;2024-02-14T12:39:43;16.03;;;8.47;;
8654;SDS011;13500;52.514;13.462;2024-02-14T12:42:11;37.73;;;13.90;;
8654;SDS011;13500;52.514;13.462;2024-02-14T12:44:39;27.63;;;12.30;;
8654;SDS011;13500;52.514;13.462;2024-02-14T12:47:07;35.53;;;15.07;;
8654;SDS011;13500;52.514;13.462;2024-02-14T12:49:35;17.03;;;7.80;;
8654;SDS011;13500;52.514;13.462;2024-02-14T12:52:03;21.60;;;10.47;;
8654;SDS011;13500;52.514;13.462;2024-02-14T12:54:31;9.30;;;6.70;;
8654;SDS011;13500;52.514;13.462;2024-02-14T12:57:01;12.57;;;7.23;;
8654;SDS011;13500;52.514;13.462;2024-02-14T12:59:30;13.33;;;8.03;;
8654;SDS011;13500;52.514;13.462;2024-02-14T13:01:58;10.13;;;6.03;;
8654;SDS011;13500;52.514;13.462;2024-02-14T13:04:27;17.73;;;8.27;;
8654;SDS011;13500;52.514;13.462;2024-02-14T13:06:55;12.57;;;7.63;;
8654;SDS011;13500;52.514;13.462;2024-02-14T13:09:23;7.90;;;5.70;;
8654;SDS011;13500;52.514;13.462;2024-02-14T13:11:51;15.47;;;8.87;;
8654;SDS011;13500;52.514;13.462;2024-02-14T13:14:21;10.80;;;6.63;;
8654;SDS011;13500;52.514;13.462;2024-02-14T13:16:49;13.53;;;7.83;;
8654;SDS011;13500;52.514;13.462;2024-02-14T13:19:17;27.93;;;14.37;;
8654;SDS011;13500;52.514;13.462;2024-02-14T13:21:46;24.60;;;12.10;;
8654;SDS011;13500;52.514;13.462;2024-02-14T13:24:15;12.17;;;7.60;;
8654;SDS011;13500;52.514;13.462;2024-02-14T13:26:43;22.43;;;12.27;;
8654;SDS011;13500;52.514;13.462;2024-02-14T13:29:12;11.93;;;8.33;;
8654;SDS011;13500;52.514;13.462;2024-02-14T13:31:41;19.10;;;10.57;;
8654;SDS011;13500;52.514;13.462;2024-02-14T13:34:09;13.73;;;7.57;;
8654;SDS011;13500;52.514;13.462;2024-02-14T13:36:38;13.40;;;8.20;;
8654;SDS011;13500;52.514;13.462;2024-02-14T13:39:06;11.73;;;8.87;;
8654;SDS011;13500;52.514;13.462;2024-02-14T13:41:34;12.13;;;8.33;;
8654;SDS011;13500;52.514;13.462;2024-02-14T13:44:04;11.70;;;8.60;;
8654;SDS011;13500;52.514;13.462;2024-02-14T13:46:33;12.37;;;7.87;;
8654;SDS011;13500;52.514;13.462;2024-02-14T13:49:03;13.77;;;8.13;;
8654;SDS011;13500;52.514;13.462;2024-02-14T13:51:31;11.40;;;7.03;;
8654;SDS011;13500;52.514;13.462;2024-02-14T13:53:59;11.50;;;8.00;;
8654;SDS011;13500;52.514;13.462;2024-02-14T13:56:27;9.90;;;7.87;;
8654;SDS011;13500;52.514;13.462;2024-02-14T13:58:56;11.90;;;7.13;;
8654;SDS011;13500;52.514;13.462;2024-02-14T14:01:24;11.33;;;7.63;;
8654;SDS011;13500;52.514;13.462;2024-02-14T14:03:53;10.00;;;7.20;;
8654;SDS011;13500;52.514;13.462;2024-02-14T14:06:23;10.53;;;7.63;;
8654;SDS011;13500;52.514;13.462;2024-02-14T14:08:52;9.97;;;7.23;;
8654;SDS011;13500;52.514;13.462;2024-02-14T14:11:20;8.80;;;6.67;;
8654;SDS011;13500;52.514;13.462;2024-02-14T14:13:48;9.73;;;7.50;;
8654;SDS011;13500;52.514;13.462;2024-02-14T14:16:16;10.87;;;7.83;;
8654;SDS011;13500;52.514;13.462;2024-02-14T14:18:44;10.67;;;6.50;;
8654;SDS011;13500;52.514;13.462;2024-02-14T14:21:13;9.07;;;6.73;;
8654;SDS011;13500;52.514;13.462;2024-02-14T14:23:43;12.37;;;7.63;;
8654;SDS011;13500;52.514;13.462;2024-02-14T14:26:12;9.87;;;6.90;;
8654;SDS011;13500;52.514;13.462;2024-02-14T14:28:42;10.87;;;7.00;;
8654;SDS011;13500;52.514;13.462;2024-02-14T14:31:10;14.27;;;7.60;;
8654;SDS011;13500;52.514;13.462;2024-02-14T14:33:39;9.00;;;7.10;;
8654;SDS011;13500;52.514;13.462;2024-02-14T14:36:07;11.53;;;7.67;;
8654;SDS011;13500;52.514;13.462;2024-02-14T14:38:36;10.57;;;7.57;;
8654;SDS011;13500;52.514;13.462;2024-02-14T14:41:06;13.60;;;8.90;;
8654;SDS011;13500;52.514;13.462;2024-02-14T14:43:34;10.33;;;8.13;;
8654;SDS011;13500;52.514;13.462;2024-02-14T14:46:03;13.83;;;8.23;;
8654;SDS011;13500;52.514;13.462;2024-02-14T14:48:31;10.60;;;8.30;;
8654;SDS011;13500;52.514;13.462;2024-02-14T14:50:59;10.00;;;7.90;;
8654;SDS011;13500;52.514;13.462;2024-02-14T14:53:27;10.53;;;8.00;;
8654;SDS011;13500;52.514;13.462;2024-02-14T14:55:57;9.30;;;8.10;;
8654;SDS011;13500;52.514;13.462;2024-02-14T14:58:28;13.40;;;8.53;;